首页
METAR-TAF:

METAR-TAF

机场 :

金斯顿, 安大略省, 加拿大

纬度: 44-13N, 经度: 076-36W, 海拔: 93米

当前天气观测

该预报发布于35分钟前的15:00 UTC
风速6节,风向东转东南
温度 24°C
湿度 41%
气压 1014 hPa
能見度: 24.1公里
多云层高于8700英尺
多云层高于21000英尺

METAR: CYGK 181500Z 12006KT 15SM BKN087 BKN210 24/10 A2993 RMK AC5CI1 SLP138 DENSITY ALT 1400FT

时间: 11:35 (15:35 UTC)

预报

该预报发布于1小时和57分钟前的13:38 UTC
预报有效从18日的 14点(UTC)到 19日的 02点(UTC)
风速5节,风向东转东北
能見度: 10公里
多云层高于8000英尺
从 18日的 1700点(UTC)
风速8节,风向
能見度: 10公里
散云层高于24000英尺

TAF: CYGK 181338Z 1814/1902 07005KT P6SM BKN080 FM181700 18008KT P6SM SCT240 RMK NXT FCST BY 182000Z

超过4000个机场的气象观测和天气预报(METAR&TAF报告)。

可查询的气象台以黄色和红色小点在地图上表示。

将鼠标移到小点上方,可查看气象台名称。

然后点击查看天气观测和预报。

如需切换地图:点击带黑十字的绿色按钮放大地图;点击带横线的绿色按钮缩小地图;或者点击绿色箭头查看邻近地区的地图。


METAR-TAF: